sensor_id;sensor_type;location;lat;lon;timestamp;pressure;altitude;pressure_sealevel;temperature;humidity
45050;BME280;61798;48.048;-1.928;2023-05-22T00:00:04;101045.31;;;11.00;100.00
45050;BME280;61798;48.048;-1.928;2023-05-22T00:02:13;101065.09;;;11.30;100.00
45050;BME280;61798;48.048;-1.928;2023-05-22T00:04:19;101055.59;;;10.97;100.00
45050;BME280;61798;48.048;-1.928;2023-05-22T00:06:25;101062.06;;;11.18;100.00
45050;BME280;61798;48.048;-1.928;2023-05-22T00:08:32;101067.97;;;11.28;100.00
45050;BME280;61798;48.048;-1.928;2023-05-22T00:10:38;101053.91;;;11.11;100.00
45050;BME280;61798;48.048;-1.928;2023-05-22T00:12:44;101062.16;;;11.09;100.00
45050;BME280;61798;48.048;-1.928;2023-05-22T00:14:50;101047.16;;;11.00;100.00
45050;BME280;61798;48.048;-1.928;2023-05-22T00:16:57;101048.19;;;10.99;100.00
45050;BME280;61798;48.048;-1.928;2023-05-22T00:19:04;101061.16;;;11.10;100.00
45050;BME280;61798;48.048;-1.928;2023-05-22T00:21:11;101057.25;;;10.98;100.00
45050;BME280;61798;48.048;-1.928;2023-05-22T00:23:17;101044.09;;;11.03;100.00
45050;BME280;61798;48.048;-1.928;2023-05-22T00:25:23;101052.63;;;11.22;100.00
45050;BME280;61798;48.048;-1.928;2023-05-22T00:27:29;101054.94;;;11.10;100.00
45050;BME280;61798;48.048;-1.928;2023-05-22T00:29:35;101050.03;;;11.14;100.00
45050;BME280;61798;48.048;-1.928;2023-05-22T00:31:41;101053.53;;;10.99;100.00
45050;BME280;61798;48.048;-1.928;2023-05-22T00:33:47;101047.75;;;11.10;100.00
45050;BME280;61798;48.048;-1.928;2023-05-22T00:35:53;101057.34;;;11.05;100.00
45050;BME280;61798;48.048;-1.928;2023-05-22T00:38:02;101058.34;;;11.04;100.00
45050;BME280;61798;48.048;-1.928;2023-05-22T00:40:08;101067.63;;;11.01;100.00
45050;BME280;61798;48.048;-1.928;2023-05-22T00:42:14;101037.28;;;10.85;100.00
45050;BME280;61798;48.048;-1.928;2023-05-22T00:44:21;101070.38;;;10.93;100.00
45050;BME280;61798;48.048;-1.928;2023-05-22T00:46:27;101051.69;;;10.84;100.00
45050;BME280;61798;48.048;-1.928;2023-05-22T00:48:33;101067.25;;;11.04;100.00
45050;BME280;61798;48.048;-1.928;2023-05-22T00:50:39;101068.72;;;10.92;100.00
45050;BME280;61798;48.048;-1.928;2023-05-22T00:52:45;101043.88;;;10.83;100.00
45050;BME280;61798;48.048;-1.928;2023-05-22T00:54:52;101071.31;;;11.00;100.00
45050;BME280;61798;48.048;-1.928;2023-05-22T00:56:58;101038.84;;;10.79;100.00
45050;BME280;61798;48.048;-1.928;2023-05-22T00:59:06;101054.28;;;10.77;100.00
45050;BME280;61798;48.048;-1.928;2023-05-22T01:01:13;101019.72;;;10.67;100.00
45050;BME280;61798;48.048;-1.928;2023-05-22T01:03:20;101044.13;;;10.73;100.00
45050;BME280;61798;48.048;-1.928;2023-05-22T01:05:30;101077.13;;;10.73;100.00
45050;BME280;61798;48.048;-1.928;2023-05-22T01:07:36;101071.75;;;10.73;100.00
45050;BME280;61798;48.048;-1.928;2023-05-22T01:09:43;101042.84;;;10.45;100.00
45050;BME280;61798;48.048;-1.928;2023-05-22T01:14:39;101040.09;;;10.53;100.00
45050;BME280;61798;48.048;-1.928;2023-05-22T01:28:52;101068.25;;;10.88;100.00
45050;BME280;61798;48.048;-1.928;2023-05-22T01:31:15;101062.41;;;10.69;100.00
45050;BME280;61798;48.048;-1.928;2023-05-22T01:33:22;101071.84;;;10.80;100.00
45050;BME280;61798;48.048;-1.928;2023-05-22T01:35:32;101077.97;;;10.74;100.00
45050;BME280;61798;48.048;-1.928;2023-05-22T01:37:41;101058.72;;;10.55;100.00
45050;BME280;61798;48.048;-1.928;2023-05-22T01:39:47;101079.47;;;10.53;100.00
45050;BME280;61798;48.048;-1.928;2023-05-22T01:41:56;101059.22;;;10.50;100.00
45050;BME280;61798;48.048;-1.928;2023-05-22T01:44:02;101043.03;;;10.43;100.00
45050;BME280;61798;48.048;-1.928;2023-05-22T01:46:08;101084.31;;;10.73;100.00
45050;BME280;61798;48.048;-1.928;2023-05-22T01:48:14;101081.19;;;10.69;100.00
45050;BME280;61798;48.048;-1.928;2023-05-22T01:50:20;101063.09;;;10.47;100.00
45050;BME280;61798;48.048;-1.928;2023-05-22T01:52:48;101078.13;;;10.72;100.00
45050;BME280;61798;48.048;-1.928;2023-05-22T01:55:05;101065.72;;;10.32;100.00
45050;BME280;61798;48.048;-1.928;2023-05-22T01:57:23;101083.22;;;10.43;100.00
45050;BME280;61798;48.048;-1.928;2023-05-22T02:01:42;101069.81;;;10.43;100.00
45050;BME280;61798;48.048;-1.928;2023-05-22T02:03:49;101074.59;;;10.33;100.00
45050;BME280;61798;48.048;-1.928;2023-05-22T02:06:04;101068.22;;;10.19;100.00
45050;BME280;61798;48.048;-1.928;2023-05-22T02:08:12;101066.00;;;10.22;100.00
45050;BME280;61798;48.048;-1.928;2023-05-22T02:10:19;101071.53;;;10.21;100.00
45050;BME280;61798;48.048;-1.928;2023-05-22T02:12:26;101076.44;;;10.32;100.00
45050;BME280;61798;48.048;-1.928;2023-05-22T02:14:32;101071.53;;;10.21;100.00
45050;BME280;61798;48.048;-1.928;2023-05-22T02:16:40;101094.19;;;10.33;100.00
45050;BME280;61798;48.048;-1.928;2023-05-22T02:18:46;101073.06;;;9.91;100.00
45050;BME280;61798;48.048;-1.928;2023-05-22T02:20:53;101097.94;;;10.24;100.00
45050;BME280;61798;48.048;-1.928;2023-05-22T02:22:58;101077.84;;;10.04;100.00
45050;BME280;61798;48.048;-1.928;2023-05-22T02:25:05;101074.09;;;10.14;100.00
45050;BME280;61798;48.048;-1.928;2023-05-22T02:27:14;101078.78;;;10.12;100.00
45050;BME280;61798;48.048;-1.928;2023-05-22T02:29:21;101067.78;;;10.07;100.00
45050;BME280;61798;48.048;-1.928;2023-05-22T02:31:27;101059.41;;;10.10;100.00
45050;BME280;61798;48.048;-1.928;2023-05-22T02:33:33;101057.56;;;10.10;100.00
45050;BME280;61798;48.048;-1.928;2023-05-22T02:35:39;101035.66;;;10.07;100.00
45050;BME280;61798;48.048;-1.928;2023-05-22T02:37:45;101046.06;;;10.01;100.00
45050;BME280;61798;48.048;-1.928;2023-05-22T02:39:51;101046.09;;;10.17;100.00
45050;BME280;61798;48.048;-1.928;2023-05-22T02:41:57;101039.69;;;10.26;100.00
45050;BME280;61798;48.048;-1.928;2023-05-22T02:44:03;101050.34;;;10.11;100.00
45050;BME280;61798;48.048;-1.928;2023-05-22T02:46:09;101028.81;;;9.80;100.00
45050;BME280;61798;48.048;-1.928;2023-05-22T02:48:15;101065.44;;;10.03;100.00
45050;BME280;61798;48.048;-1.928;2023-05-22T02:50:21;101055.94;;;10.01;100.00
45050;BME280;61798;48.048;-1.928;2023-05-22T02:52:27;101066.59;;;10.09;100.00
45050;BME280;61798;48.048;-1.928;2023-05-22T02:54:33;101063.66;;;9.96;100.00
45050;BME280;61798;48.048;-1.928;2023-05-22T02:56:38;101082.88;;;9.99;100.00
45050;BME280;61798;48.048;-1.928;2023-05-22T02:58:44;101053.38;;;9.84;100.00
45050;BME280;61798;48.048;-1.928;2023-05-22T03:00:50;101028.28;;;9.85;100.00
45050;BME280;61798;48.048;-1.928;2023-05-22T03:02:57;101043.34;;;9.86;100.00
45050;BME280;61798;48.048;-1.928;2023-05-22T03:05:04;101086.19;;;10.10;100.00
45050;BME280;61798;48.048;-1.928;2023-05-22T03:07:10;101077.13;;;10.11;100.00
45050;BME280;61798;48.048;-1.928;2023-05-22T03:09:16;101072.78;;;10.10;100.00
45050;BME280;61798;48.048;-1.928;2023-05-22T03:11:24;101038.34;;;9.83;100.00
45050;BME280;61798;48.048;-1.928;2023-05-22T03:13:30;101076.72;;;9.99;100.00
45050;BME280;61798;48.048;-1.928;2023-05-22T03:15:36;101069.63;;;10.06;100.00
45050;BME280;61798;48.048;-1.928;2023-05-22T03:17:42;101067.22;;;9.88;100.00
45050;BME280;61798;48.048;-1.928;2023-05-22T03:19:48;101045.22;;;9.77;100.00
45050;BME280;61798;48.048;-1.928;2023-05-22T03:21:54;101075.53;;;10.01;100.00
45050;BME280;61798;48.048;-1.928;2023-05-22T03:24:00;101076.53;;;10.00;100.00
45050;BME280;61798;48.048;-1.928;2023-05-22T03:26:06;101079.34;;;10.07;100.00
45050;BME280;61798;48.048;-1.928;2023-05-22T03:28:12;101074.72;;;9.92;100.00
45050;BME280;61798;48.048;-1.928;2023-05-22T03:30:18;101084.44;;;9.93;100.00
45050;BME280;61798;48.048;-1.928;2023-05-22T03:32:24;101056.31;;;9.98;100.00
45050;BME280;61798;48.048;-1.928;2023-05-22T03:34:30;101077.66;;;9.82;100.00
45050;BME280;61798;48.048;-1.928;2023-05-22T03:36:37;101074.50;;;9.79;100.00
45050;BME280;61798;48.048;-1.928;2023-05-22T03:38:43;101075.09;;;9.89;100.00
45050;BME280;61798;48.048;-1.928;2023-05-22T03:40:49;101050.16;;;9.89;100.00
45050;BME280;61798;48.048;-1.928;2023-05-22T03:42:54;101064.88;;;9.93;100.00
45050;BME280;61798;48.048;-1.928;2023-05-22T03:45:00;101034.03;;;9.73;100.00
45050;BME280;61798;48.048;-1.928;2023-05-22T03:47:06;101064.75;;;10.10;100.00
45050;BME280;61798;48.048;-1.928;2023-05-22T03:49:12;101059.69;;;9.91;100.00
45050;BME280;61798;48.048;-1.928;2023-05-22T03:51:18;101051.88;;;9.81;100.00
45050;BME280;61798;48.048;-1.928;2023-05-22T03:53:24;101083.50;;;10.10;100.00
45050;BME280;61798;48.048;-1.928;2023-05-22T03:55:30;101073.72;;;9.93;100.00
45050;BME280;61798;48.048;-1.928;2023-05-22T03:57:36;101060.03;;;9.88;100.00
45050;BME280;61798;48.048;-1.928;2023-05-22T03:59:42;101072.38;;;9.98;100.00
45050;BME280;61798;48.048;-1.928;2023-05-22T04:01:48;101084.97;;;10.12;100.00
45050;BME280;61798;48.048;-1.928;2023-05-22T04:03:54;101068.38;;;9.93;100.00
45050;BME280;61798;48.048;-1.928;2023-05-22T04:06:00;101085.03;;;10.04;100.00
45050;BME280;61798;48.048;-1.928;2023-05-22T04:08:06;101076.09;;;9.88;100.00
45050;BME280;61798;48.048;-1.928;2023-05-22T04:10:12;101038.59;;;9.65;100.00
45050;BME280;61798;48.048;-1.928;2023-05-22T04:12:18;101073.66;;;9.78;100.00
45050;BME280;61798;48.048;-1.928;2023-05-22T04:14:24;101086.69;;;10.05;100.00
45050;BME280;61798;48.048;-1.928;2023-05-22T04:16:31;101088.44;;;9.98;100.00
45050;BME280;61798;48.048;-1.928;2023-05-22T04:18:38;101057.56;;;9.87;100.00
45050;BME280;61798;48.048;-1.928;2023-05-22T04:20:45;101088.22;;;9.99;100.00
45050;BME280;61798;48.048;-1.928;2023-05-22T04:22:51;101067.06;;;9.89;100.00
45050;BME280;61798;48.048;-1.928;2023-05-22T04:24:58;101074.22;;;9.97;100.00
45050;BME280;61798;48.048;-1.928;2023-05-22T04:27:05;101077.28;;;9.86;100.00
45050;BME280;61798;48.048;-1.928;2023-05-22T04:29:11;101076.88;;;9.97;100.00
45050;BME280;61798;48.048;-1.928;2023-05-22T04:31:18;101080.03;;;10.01;100.00
45050;BME280;61798;48.048;-1.928;2023-05-22T04:33:27;101055.03;;;9.85;100.00
45050;BME280;61798;48.048;-1.928;2023-05-22T04:35:33;101057.00;;;9.91;100.00
45050;BME280;61798;48.048;-1.928;2023-05-22T04:37:39;101085.97;;;9.88;100.00
45050;BME280;61798;48.048;-1.928;2023-05-22T04:39:46;101073.84;;;9.77;100.00
45050;BME280;61798;48.048;-1.928;2023-05-22T04:41:52;101076.97;;;9.80;100.00
45050;BME280;61798;48.048;-1.928;2023-05-22T04:43:58;101079.66;;;9.80;100.00
45050;BME280;61798;48.048;-1.928;2023-05-22T04:46:05;101098.13;;;9.75;100.00
45050;BME280;61798;48.048;-1.928;2023-05-22T04:48:13;101087.69;;;9.80;100.00
45050;BME280;61798;48.048;-1.928;2023-05-22T04:50:20;101079.75;;;9.63;100.00
45050;BME280;61798;48.048;-1.928;2023-05-22T04:52:26;101098.78;;;9.69;100.00
45050;BME280;61798;48.048;-1.928;2023-05-22T04:54:32;101084.13;;;9.56;100.00
45050;BME280;61798;48.048;-1.928;2023-05-22T04:56:38;101074.47;;;9.55;100.00
45050;BME280;61798;48.048;-1.928;2023-05-22T04:58:45;101094.13;;;9.71;100.00
45050;BME280;61798;48.048;-1.928;2023-05-22T05:00:53;101073.84;;;9.45;100.00
45050;BME280;61798;48.048;-1.928;2023-05-22T05:02:59;101098.47;;;9.63;100.00
45050;BME280;61798;48.048;-1.928;2023-05-22T05:05:05;101103.16;;;9.70;100.00
45050;BME280;61798;48.048;-1.928;2023-05-22T05:07:11;101122.38;;;9.73;100.00
45050;BME280;61798;48.048;-1.928;2023-05-22T05:09:17;101095.31;;;9.60;100.00
45050;BME280;61798;48.048;-1.928;2023-05-22T05:11:23;101090.16;;;9.58;100.00
45050;BME280;61798;48.048;-1.928;2023-05-22T05:13:29;101092.44;;;9.70;100.00
45050;BME280;61798;48.048;-1.928;2023-05-22T05:15:35;101079.81;;;9.55;100.00
45050;BME280;61798;48.048;-1.928;2023-05-22T05:17:42;101119.13;;;9.87;100.00
45050;BME280;61798;48.048;-1.928;2023-05-22T05:19:48;101095.97;;;9.70;100.00
45050;BME280;61798;48.048;-1.928;2023-05-22T05:21:54;101114.41;;;9.89;100.00
45050;BME280;61798;48.048;-1.928;2023-05-22T05:24:00;101071.69;;;9.72;100.00
45050;BME280;61798;48.048;-1.928;2023-05-22T05:26:06;101070.16;;;9.78;100.00
45050;BME280;61798;48.048;-1.928;2023-05-22T05:28:12;101120.50;;;10.06;100.00
45050;BME280;61798;48.048;-1.928;2023-05-22T05:30:18;101106.28;;;10.05;100.00
45050;BME280;61798;48.048;-1.928;2023-05-22T05:32:24;101121.56;;;10.20;100.00
45050;BME280;61798;48.048;-1.928;2023-05-22T05:34:30;101090.75;;;10.01;100.00
45050;BME280;61798;48.048;-1.928;2023-05-22T05:36:36;101117.53;;;10.24;100.00
45050;BME280;61798;48.048;-1.928;2023-05-22T05:38:42;101113.53;;;10.20;100.00
45050;BME280;61798;48.048;-1.928;2023-05-22T05:40:48;101079.56;;;9.97;100.00
45050;BME280;61798;48.048;-1.928;2023-05-22T05:42:54;101074.84;;;9.99;100.00
45050;BME280;61798;48.048;-1.928;2023-05-22T05:45:03;101095.47;;;10.22;100.00
45050;BME280;61798;48.048;-1.928;2023-05-22T05:47:14;101122.66;;;10.58;100.00
45050;BME280;61798;48.048;-1.928;2023-05-22T05:49:22;101051.66;;;10.15;100.00
45050;BME280;61798;48.048;-1.928;2023-05-22T05:51:28;101116.84;;;10.54;100.00
45050;BME280;61798;48.048;-1.928;2023-05-22T05:53:34;101095.03;;;10.57;100.00
45050;BME280;61798;48.048;-1.928;2023-05-22T05:55:41;101059.91;;;10.29;100.00
45050;BME280;61798;48.048;-1.928;2023-05-22T05:57:48;101076.38;;;10.41;100.00
45050;BME280;61798;48.048;-1.928;2023-05-22T05:59:54;101055.50;;;10.36;100.00
45050;BME280;61798;48.048;-1.928;2023-05-22T06:02:00;101054.78;;;10.42;100.00
45050;BME280;61798;48.048;-1.928;2023-05-22T06:04:06;101075.91;;;10.61;100.00
45050;BME280;61798;48.048;-1.928;2023-05-22T06:06:13;101111.34;;;10.86;100.00
45050;BME280;61798;48.048;-1.928;2023-05-22T06:08:20;101094.59;;;10.84;100.00
45050;BME280;61798;48.048;-1.928;2023-05-22T06:10:26;101069.38;;;10.78;100.00
45050;BME280;61798;48.048;-1.928;2023-05-22T06:12:32;101093.50;;;10.94;100.00
45050;BME280;61798;48.048;-1.928;2023-05-22T06:14:38;101012.13;;;10.56;100.00
45050;BME280;61798;48.048;-1.928;2023-05-22T06:16:47;101071.97;;;11.02;100.00
45050;BME280;61798;48.048;-1.928;2023-05-22T06:18:53;101052.38;;;10.86;100.00
45050;BME280;61798;48.048;-1.928;2023-05-22T06:21:01;101104.44;;;11.23;100.00
45050;BME280;61798;48.048;-1.928;2023-05-22T06:23:08;101088.78;;;11.26;100.00
45050;BME280;61798;48.048;-1.928;2023-05-22T06:25:14;101081.47;;;11.20;100.00
45050;BME280;61798;48.048;-1.928;2023-05-22T06:27:21;101106.06;;;11.39;100.00
45050;BME280;61798;48.048;-1.928;2023-05-22T06:29:27;101096.53;;;11.36;100.00
45050;BME280;61798;48.048;-1.928;2023-05-22T06:31:33;101112.38;;;11.46;100.00
45050;BME280;61798;48.048;-1.928;2023-05-22T06:33:42;101099.75;;;11.47;100.00
45050;BME280;61798;48.048;-1.928;2023-05-22T06:35:48;101093.19;;;11.49;100.00
45050;BME280;61798;48.048;-1.928;2023-05-22T06:37:54;101110.72;;;11.67;100.00
45050;BME280;61798;48.048;-1.928;2023-05-22T06:40:00;101121.56;;;11.74;100.00
45050;BME280;61798;48.048;-1.928;2023-05-22T06:42:06;101104.25;;;11.77;100.00
45050;BME280;61798;48.048;-1.928;2023-05-22T06:44:12;101103.34;;;11.91;100.00
45050;BME280;61798;48.048;-1.928;2023-05-22T06:46:18;101083.38;;;11.79;100.00
45050;BME280;61798;48.048;-1.928;2023-05-22T06:48:24;101120.47;;;12.05;100.00
45050;BME280;61798;48.048;-1.928;2023-05-22T06:50:30;101121.28;;;12.06;100.00
45050;BME280;61798;48.048;-1.928;2023-05-22T06:52:36;101104.56;;;12.11;100.00
45050;BME280;61798;48.048;-1.928;2023-05-22T06:54:43;101109.22;;;12.17;100.00
45050;BME280;61798;48.048;-1.928;2023-05-22T06:56:49;101103.28;;;12.22;100.00
45050;BME280;61798;48.048;-1.928;2023-05-22T06:58:55;101091.59;;;12.14;100.00
45050;BME280;61798;48.048;-1.928;2023-05-22T07:01:01;101093.81;;;12.26;100.00
45050;BME280;61798;48.048;-1.928;2023-05-22T07:03:07;101098.53;;;12.24;100.00
45050;BME280;61798;48.048;-1.928;2023-05-22T07:05:13;101105.94;;;12.44;100.00
45050;BME280;61798;48.048;-1.928;2023-05-22T07:07:19;101085.28;;;12.44;100.00
45050;BME280;61798;48.048;-1.928;2023-05-22T07:09:25;101121.59;;;12.91;100.00
45050;BME280;61798;48.048;-1.928;2023-05-22T07:11:31;101123.66;;;12.89;100.00
45050;BME280;61798;48.048;-1.928;2023-05-22T07:13:37;101095.72;;;12.90;100.00
45050;BME280;61798;48.048;-1.928;2023-05-22T07:15:45;101124.13;;;12.99;100.00
45050;BME280;61798;48.048;-1.928;2023-05-22T07:17:51;101105.56;;;13.05;100.00
45050;BME280;61798;48.048;-1.928;2023-05-22T07:19:57;101123.81;;;13.16;100.00
45050;BME280;61798;48.048;-1.928;2023-05-22T07:22:03;101113.53;;;13.27;100.00
45050;BME280;61798;48.048;-1.928;2023-05-22T07:24:09;101111.84;;;13.26;100.00
45050;BME280;61798;48.048;-1.928;2023-05-22T07:26:15;101126.75;;;13.21;100.00
45050;BME280;61798;48.048;-1.928;2023-05-22T07:28:21;101122.72;;;13.46;100.00
45050;BME280;61798;48.048;-1.928;2023-05-22T07:30:27;101096.63;;;13.47;100.00
45050;BME280;61798;48.048;-1.928;2023-05-22T07:32:33;101086.53;;;13.56;100.00
45050;BME280;61798;48.048;-1.928;2023-05-22T07:34:39;101090.84;;;13.50;100.00
45050;BME280;61798;48.048;-1.928;2023-05-22T07:36:45;101097.56;;;13.68;100.00
45050;BME280;61798;48.048;-1.928;2023-05-22T07:38:51;101121.63;;;13.69;100.00
45050;BME280;61798;48.048;-1.928;2023-05-22T07:40:57;101094.28;;;13.72;100.00
45050;BME280;61798;48.048;-1.928;2023-05-22T07:43:03;101091.50;;;13.59;100.00
45050;BME280;61798;48.048;-1.928;2023-05-22T07:45:09;101098.88;;;13.99;100.00
45050;BME280;61798;48.048;-1.928;2023-05-22T07:47:15;101088.47;;;13.76;100.00
45050;BME280;61798;48.048;-1.928;2023-05-22T07:49:23;101091.06;;;13.48;100.00
45050;BME280;61798;48.048;-1.928;2023-05-22T07:51:30;101120.88;;;14.30;100.00
45050;BME280;61798;48.048;-1.928;2023-05-22T07:53:36;101098.72;;;14.35;100.00
45050;BME280;61798;48.048;-1.928;2023-05-22T07:55:42;101116.91;;;14.05;100.00
45050;BME280;61798;48.048;-1.928;2023-05-22T07:57:49;101121.72;;;14.31;100.00
45050;BME280;61798;48.048;-1.928;2023-05-22T07:59:55;101100.34;;;14.09;100.00
45050;BME280;61798;48.048;-1.928;2023-05-22T08:02:01;101105.94;;;14.41;100.00
45050;BME280;61798;48.048;-1.928;2023-05-22T08:04:07;101076.50;;;13.92;100.00
45050;BME280;61798;48.048;-1.928;2023-05-22T08:06:13;101129.63;;;14.39;100.00
45050;BME280;61798;48.048;-1.928;2023-05-22T08:08:20;101106.78;;;14.42;100.00
45050;BME280;61798;48.048;-1.928;2023-05-22T08:10:26;101093.31;;;14.14;100.00
45050;BME280;61798;48.048;-1.928;2023-05-22T08:12:32;101110.31;;;14.42;100.00
45050;BME280;61798;48.048;-1.928;2023-05-22T08:14:38;101105.56;;;14.44;100.00
45050;BME280;61798;48.048;-1.928;2023-05-22T08:16:44;101124.84;;;14.21;100.00
45050;BME280;61798;48.048;-1.928;2023-05-22T08:18:50;101120.47;;;14.20;100.00
45050;BME280;61798;48.048;-1.928;2023-05-22T08:20:56;101102.63;;;14.12;100.00
45050;BME280;61798;48.048;-1.928;2023-05-22T08:23:02;101090.59;;;14.14;100.00
45050;BME280;61798;48.048;-1.928;2023-05-22T08:25:08;101089.38;;;14.44;100.00
45050;BME280;61798;48.048;-1.928;2023-05-22T08:27:14;101122.75;;;14.84;100.00
45050;BME280;61798;48.048;-1.928;2023-05-22T08:29:20;101082.31;;;14.43;100.00
45050;BME280;61798;48.048;-1.928;2023-05-22T08:31:26;101111.56;;;14.60;100.00
45050;BME280;61798;48.048;-1.928;2023-05-22T08:33:33;101067.19;;;14.49;100.00
45050;BME280;61798;48.048;-1.928;2023-05-22T08:35:39;101105.94;;;14.82;100.00
45050;BME280;61798;48.048;-1.928;2023-05-22T08:37:45;101083.31;;;14.83;100.00
45050;BME280;61798;48.048;-1.928;2023-05-22T08:39:51;101057.56;;;14.87;100.00
45050;BME280;61798;48.048;-1.928;2023-05-22T08:41:57;101078.94;;;14.89;100.00
45050;BME280;61798;48.048;-1.928;2023-05-22T08:44:03;101082.28;;;14.84;100.00
45050;BME280;61798;48.048;-1.928;2023-05-22T08:46:09;101077.50;;;14.79;100.00
45050;BME280;61798;48.048;-1.928;2023-05-22T08:48:17;101109.69;;;14.95;100.00
45050;BME280;61798;48.048;-1.928;2023-05-22T08:50:24;101075.44;;;14.75;100.00
45050;BME280;61798;48.048;-1.928;2023-05-22T08:52:37;101082.69;;;14.88;100.00
45050;BME280;61798;48.048;-1.928;2023-05-22T08:54:53;101089.47;;;15.18;100.00
45050;BME280;61798;48.048;-1.928;2023-05-22T08:57:00;101067.94;;;14.97;100.00
45050;BME280;61798;48.048;-1.928;2023-05-22T08:59:06;101093.56;;;15.34;100.00
45050;BME280;61798;48.048;-1.928;2023-05-22T09:01:12;101065.19;;;15.18;100.00
45050;BME280;61798;48.048;-1.928;2023-05-22T09:03:19;101085.63;;;15.46;100.00
45050;BME280;61798;48.048;-1.928;2023-05-22T09:05:26;101065.81;;;15.20;100.00
45050;BME280;61798;48.048;-1.928;2023-05-22T09:07:32;101067.59;;;15.33;100.00
45050;BME280;61798;48.048;-1.928;2023-05-22T09:09:38;101081.31;;;15.38;100.00
45050;BME280;61798;48.048;-1.928;2023-05-22T09:11:44;101081.31;;;15.78;100.00
45050;BME280;61798;48.048;-1.928;2023-05-22T09:13:51;101062.69;;;15.23;100.00
45050;BME280;61798;48.048;-1.928;2023-05-22T09:16:06;101100.63;;;15.35;100.00
45050;BME280;61798;48.048;-1.928;2023-05-22T09:18:12;101061.44;;;15.19;100.00
45050;BME280;61798;48.048;-1.928;2023-05-22T09:20:18;101091.31;;;15.31;100.00
45050;BME280;61798;48.048;-1.928;2023-05-22T09:22:34;101072.59;;;15.29;100.00
45050;BME280;61798;48.048;-1.928;2023-05-22T09:24:43;101078.75;;;15.50;100.00
45050;BME280;61798;48.048;-1.928;2023-05-22T09:26:51;101075.19;;;15.89;100.00
45050;BME280;61798;48.048;-1.928;2023-05-22T09:28:58;101053.38;;;15.58;100.00
45050;BME280;61798;48.048;-1.928;2023-05-22T09:31:04;101080.66;;;15.82;100.00
45050;BME280;61798;48.048;-1.928;2023-05-22T09:33:11;101090.63;;;15.82;100.00
45050;BME280;61798;48.048;-1.928;2023-05-22T09:35:18;101061.00;;;15.68;100.00
45050;BME280;61798;48.048;-1.928;2023-05-22T09:37:27;101078.56;;;15.45;100.00
45050;BME280;61798;48.048;-1.928;2023-05-22T09:39:43;101090.03;;;15.40;100.00
45050;BME280;61798;48.048;-1.928;2023-05-22T09:41:49;101088.13;;;15.41;100.00
45050;BME280;61798;48.048;-1.928;2023-05-22T09:43:55;101062.69;;;15.23;100.00
45050;BME280;61798;48.048;-1.928;2023-05-22T09:46:02;101065.56;;;15.28;100.00
45050;BME280;61798;48.048;-1.928;2023-05-22T09:48:11;101090.44;;;15.44;100.00
45050;BME280;61798;48.048;-1.928;2023-05-22T09:50:17;101089.56;;;15.50;100.00
45050;BME280;61798;48.048;-1.928;2023-05-22T09:52:26;101096.13;;;15.68;100.00
45050;BME280;61798;48.048;-1.928;2023-05-22T09:54:33;101088.91;;;15.94;100.00
45050;BME280;61798;48.048;-1.928;2023-05-22T09:56:40;101081.81;;;16.00;100.00
45050;BME280;61798;48.048;-1.928;2023-05-22T09:58:49;101070.56;;;16.03;100.00
45050;BME280;61798;48.048;-1.928;2023-05-22T10:00:57;101039.69;;;16.18;100.00
45050;BME280;61798;48.048;-1.928;2023-05-22T10:03:08;101070.97;;;16.77;100.00
45050;BME280;61798;48.048;-1.928;2023-05-22T10:05:17;101034.44;;;16.68;100.00
45050;BME280;61798;48.048;-1.928;2023-05-22T10:07:33;101067.69;;;16.49;100.00
45050;BME280;61798;48.048;-1.928;2023-05-22T10:09:41;101075.16;;;16.73;100.00
45050;BME280;61798;48.048;-1.928;2023-05-22T10:11:49;101056.53;;;17.02;100.00
45050;BME280;61798;48.048;-1.928;2023-05-22T10:13:58;101062.41;;;17.18;100.00
45050;BME280;61798;48.048;-1.928;2023-05-22T10:16:06;101055.31;;;17.17;100.00
45050;BME280;61798;48.048;-1.928;2023-05-22T10:18:14;101060.19;;;17.46;100.00
45050;BME280;61798;48.048;-1.928;2023-05-22T10:20:21;101036.91;;;17.57;100.00
45050;BME280;61798;48.048;-1.928;2023-05-22T10:22:27;101056.50;;;17.40;100.00
45050;BME280;61798;48.048;-1.928;2023-05-22T10:24:33;101057.16;;;17.23;100.00
45050;BME280;61798;48.048;-1.928;2023-05-22T10:26:41;101069.09;;;17.16;100.00
45050;BME280;61798;48.048;-1.928;2023-05-22T10:28:55;101033.91;;;16.78;100.00
45050;BME280;61798;48.048;-1.928;2023-05-22T10:31:13;101077.28;;;16.90;100.00
45050;BME280;61798;48.048;-1.928;2023-05-22T10:33:28;101081.94;;;16.83;100.00
45050;BME280;61798;48.048;-1.928;2023-05-22T10:37:54;101076.66;;;16.69;100.00
45050;BME280;61798;48.048;-1.928;2023-05-22T10:40:07;101069.47;;;16.81;100.00
45050;BME280;61798;48.048;-1.928;2023-05-22T10:42:14;101034.06;;;16.83;100.00
45050;BME280;61798;48.048;-1.928;2023-05-22T10:44:21;101062.63;;;17.36;100.00
45050;BME280;61798;48.048;-1.928;2023-05-22T10:46:31;101047.13;;;17.24;100.00
45050;BME280;61798;48.048;-1.928;2023-05-22T10:48:37;101047.38;;;17.22;100.00
45050;BME280;61798;48.048;-1.928;2023-05-22T10:50:53;101031.25;;;17.09;100.00
45050;BME280;61798;48.048;-1.928;2023-05-22T10:53:19;101056.19;;;17.49;100.00
45050;BME280;61798;48.048;-1.928;2023-05-22T10:55:26;101031.13;;;17.22;100.00
45050;BME280;61798;48.048;-1.928;2023-05-22T10:57:32;101063.66;;;17.53;100.00
45050;BME280;61798;48.048;-1.928;2023-05-22T10:59:42;101065.53;;;17.53;100.00
45050;BME280;61798;48.048;-1.928;2023-05-22T11:01:59;101060.28;;;17.70;100.00
45050;BME280;61798;48.048;-1.928;2023-05-22T11:08:42;101037.13;;;17.86;100.00
45050;BME280;61798;48.048;-1.928;2023-05-22T11:10:55;101039.63;;;18.12;100.00
45050;BME280;61798;48.048;-1.928;2023-05-22T11:13:12;101017.69;;;18.14;100.00